King Salmon Airport
PAKN : rendu visible

Aérodrome :











RETROUVEZ-NOUS SUR...

 
LOGIN :

S'inscrire | Disclaimer

   EN    FR    IT 

 









Légende :    VFR   VFR Marginal   IFR   IFR Intensif   IFR Très Intensif
Visi : 
Plafond : 
>= 8 km
>= 3000ft
5 à 8 km
1000 à 3000 ft
1500m à 5 km
500 à 1000 ft
800 à 1500m
200 à 500 ft
< 800m
< 200 ft
Symboles :   Orages  Brouillard  Fortes neiges  Fortes précipitations  Vent > 20 kt






- Altitude de l'aérodrome : 73 ft
- Code IATA : AKN


PAKN - King Salmon

DERNIER METAR :
  • 202030Z 32007KT 9SM FEW006 BKN023 OVC027 00/M01 A2877 RMK AO2 T00001011

METARs EXPIRÉS :
  • 201954Z 31005KT 10SM OVC005 00/M01 A2875 RMK AO2 SLP738 T00001006
  • 201854Z 29003KT 6SM BR BKN009 OVC017 01/00 A2873 RMK AO2 UPB49E54SNE49 SLP729 P0002 T00060000
  • 201844Z 30003KT 4SM -SN BR BKN009 OVC017 01/00 A2873 RMK AO2 P0002 T00060000
  • 201754Z 34004KT 3SM -SN BR OVC017 01/00 A2870 RMK AO2 SLP721 P0004 60008 T00060000 10006 21017 53010

TAF PAKN
Valide du 20 à 18h jusqu'au 21 à 18h UTC


201741Z 2018/2118 VRB05KT 2SM -SN BR OVC016
TEMPO 2018/2022 1SM -SN BR OVC009
FM210000 25015G25KT 3SM -SHSN BKN007
FM210600 22015KT 3SM -SHSN OVC010
FM211100 23014KT 3SM -SHSN OVC007



MET'MAP, la Météo Aéronautique d'un coup d'oeil ! - Copyright ORBIFLY Décembre 2007 - Disclaimer

ORBIFLY MET'MAP TEAM :

Programmation & Développement : Alexandra Zaïnal
Sur une idée originale de : Baudouin d'Aumeries
Assistance à la programmation : Marc-Olivier Méhu
Soutien technique & logistique : Manuel Goepfert

Contact : metmap@orbifly.com




SOURCES & CREDITS :

   NOAA       Earth
Advisory